sensor_id;sensor_type;location;lat;lon;timestamp;P1;durP1;ratioP1;P2;durP2;ratioP2
22017;SDS011;11173;51.050;7.108;2024-03-02T00:00:24;0.90;;;0.90;;
22017;SDS011;11173;51.050;7.108;2024-03-02T00:10:26;1.10;;;1.00;;
22017;SDS011;11173;51.050;7.108;2024-03-02T00:20:29;0.85;;;0.80;;
22017;SDS011;11173;51.050;7.108;2024-03-02T00:40:42;1.00;;;1.00;;
22017;SDS011;11173;51.050;7.108;2024-03-02T00:50:43;2.55;;;1.10;;
22017;SDS011;11173;51.050;7.108;2024-03-02T01:00:43;0.77;;;0.77;;
22017;SDS011;11173;51.050;7.108;2024-03-02T01:10:43;0.70;;;0.70;;
22017;SDS011;11173;51.050;7.108;2024-03-02T01:20:43;1.05;;;0.80;;
22017;SDS011;11173;51.050;7.108;2024-03-02T01:30:44;0.85;;;0.85;;
22017;SDS011;11173;51.050;7.108;2024-03-02T01:40:44;0.80;;;0.60;;
22017;SDS011;11173;51.050;7.108;2024-03-02T01:50:45;0.75;;;0.70;;
22017;SDS011;11173;51.050;7.108;2024-03-02T02:00:45;1.52;;;0.60;;
22017;SDS011;11173;51.050;7.108;2024-03-02T02:10:45;0.60;;;0.60;;
22017;SDS011;11173;51.050;7.108;2024-03-02T02:20:45;0.60;;;0.60;;
22017;SDS011;11173;51.050;7.108;2024-03-02T02:30:46;0.57;;;0.57;;
22017;SDS011;11173;51.050;7.108;2024-03-02T02:40:46;0.68;;;0.68;;
22017;SDS011;11173;51.050;7.108;2024-03-02T02:50:46;0.60;;;0.60;;
22017;SDS011;11173;51.050;7.108;2024-03-02T03:00:47;0.50;;;0.50;;
22017;SDS011;11173;51.050;7.108;2024-03-02T03:10:47;0.40;;;0.40;;
22017;SDS011;11173;51.050;7.108;2024-03-02T03:20:47;0.60;;;0.60;;
22017;SDS011;11173;51.050;7.108;2024-03-02T03:30:47;0.50;;;0.50;;
22017;SDS011;11173;51.050;7.108;2024-03-02T03:40:48;0.60;;;0.60;;
22017;SDS011;11173;51.050;7.108;2024-03-02T03:50:48;0.50;;;0.50;;
22017;SDS011;11173;51.050;7.108;2024-03-02T04:00:48;0.40;;;0.40;;
22017;SDS011;11173;51.050;7.108;2024-03-02T04:10:48;0.60;;;0.57;;
22017;SDS011;11173;51.050;7.108;2024-03-02T04:20:49;0.82;;;0.70;;
22017;SDS011;11173;51.050;7.108;2024-03-02T04:30:49;0.60;;;0.60;;
22017;SDS011;11173;51.050;7.108;2024-03-02T04:40:49;0.63;;;0.63;;
22017;SDS011;11173;51.050;7.108;2024-03-02T04:50:50;0.50;;;0.50;;
22017;SDS011;11173;51.050;7.108;2024-03-02T05:00:50;0.63;;;0.63;;
22017;SDS011;11173;51.050;7.108;2024-03-02T05:10:51;0.70;;;0.70;;
22017;SDS011;11173;51.050;7.108;2024-03-02T05:20:51;0.50;;;0.50;;
22017;SDS011;11173;51.050;7.108;2024-03-02T05:30:51;0.75;;;0.75;;
22017;SDS011;11173;51.050;7.108;2024-03-02T05:40:51;1.60;;;1.50;;
22017;SDS011;11173;51.050;7.108;2024-03-02T05:50:52;1.98;;;1.88;;
22017;SDS011;11173;51.050;7.108;2024-03-02T06:00:52;1.60;;;1.50;;
22017;SDS011;11173;51.050;7.108;2024-03-02T06:10:52;1.35;;;1.25;;
22017;SDS011;11173;51.050;7.108;2024-03-02T06:20:53;1.52;;;1.42;;
22017;SDS011;11173;51.050;7.108;2024-03-02T06:30:53;1.45;;;1.35;;
22017;SDS011;11173;51.050;7.108;2024-03-02T06:40:54;1.70;;;1.60;;
22017;SDS011;11173;51.050;7.108;2024-03-02T06:50:55;1.73;;;1.63;;
22017;SDS011;11173;51.050;7.108;2024-03-02T07:00:56;1.60;;;1.42;;
22017;SDS011;11173;51.050;7.108;2024-03-02T07:10:56;1.50;;;1.40;;
22017;SDS011;11173;51.050;7.108;2024-03-02T07:20:57;3.78;;;1.60;;
22017;SDS011;11173;51.050;7.108;2024-03-02T07:31:01;1.00;;;0.90;;
22017;SDS011;11173;51.050;7.108;2024-03-02T07:41:02;1.00;;;0.90;;
22017;SDS011;11173;51.050;7.108;2024-03-02T07:51:02;1.23;;;1.00;;
22017;SDS011;11173;51.050;7.108;2024-03-02T08:01:03;1.00;;;0.90;;
22017;SDS011;11173;51.050;7.108;2024-03-02T08:11:03;0.82;;;0.82;;
22017;SDS011;11173;51.050;7.108;2024-03-02T08:21:04;0.80;;;0.80;;
22017;SDS011;11173;51.050;7.108;2024-03-02T08:31:04;0.70;;;0.70;;
22017;SDS011;11173;51.050;7.108;2024-03-02T08:41:04;0.80;;;0.80;;
22017;SDS011;11173;51.050;7.108;2024-03-02T08:51:05;0.60;;;0.60;;
22017;SDS011;11173;51.050;7.108;2024-03-02T09:01:07;0.50;;;0.50;;
22017;SDS011;11173;51.050;7.108;2024-03-02T09:11:08;0.80;;;0.80;;
22017;SDS011;11173;51.050;7.108;2024-03-02T09:21:09;0.93;;;0.60;;
22017;SDS011;11173;51.050;7.108;2024-03-02T09:31:10;0.60;;;0.60;;
22017;SDS011;11173;51.050;7.108;2024-03-02T09:41:11;0.55;;;0.50;;
22017;SDS011;11173;51.050;7.108;2024-03-02T09:51:12;0.60;;;0.60;;
22017;SDS011;11173;51.050;7.108;2024-03-02T10:01:14;0.70;;;0.70;;
22017;SDS011;11173;51.050;7.108;2024-03-02T10:11:27;2.05;;;0.60;;
22017;SDS011;11173;51.050;7.108;2024-03-02T10:21:31;0.52;;;0.52;;
22017;SDS011;11173;51.050;7.108;2024-03-02T10:31:31;0.50;;;0.50;;
22017;SDS011;11173;51.050;7.108;2024-03-02T10:41:33;0.60;;;0.52;;
22017;SDS011;11173;51.050;7.108;2024-03-02T10:51:34;1.20;;;0.80;;
22017;SDS011;11173;51.050;7.108;2024-03-02T11:01:36;0.70;;;0.70;;
22017;SDS011;11173;51.050;7.108;2024-03-02T11:11:40;0.73;;;0.65;;
22017;SDS011;11173;51.050;7.108;2024-03-02T11:21:42;1.45;;;0.73;;
22017;SDS011;11173;51.050;7.108;2024-03-02T11:31:58;0.40;;;0.40;;
22017;SDS011;11173;51.050;7.108;2024-03-02T11:42:00;0.55;;;0.38;;
22017;SDS011;11173;51.050;7.108;2024-03-02T11:52:00;0.50;;;0.50;;
22017;SDS011;11173;51.050;7.108;2024-03-02T12:02:01;0.60;;;0.60;;
22017;SDS011;11173;51.050;7.108;2024-03-02T12:12:06;1.00;;;1.00;;
22017;SDS011;11173;51.050;7.108;2024-03-02T12:22:06;0.70;;;0.70;;
22017;SDS011;11173;51.050;7.108;2024-03-02T12:32:07;0.55;;;0.35;;
22017;SDS011;11173;51.050;7.108;2024-03-02T12:42:07;0.30;;;0.30;;
22017;SDS011;11173;51.050;7.108;2024-03-02T12:52:07;0.40;;;0.30;;
22017;SDS011;11173;51.050;7.108;2024-03-02T13:02:07;0.30;;;0.30;;
22017;SDS011;11173;51.050;7.108;2024-03-02T13:12:17;0.30;;;0.30;;
22017;SDS011;11173;51.050;7.108;2024-03-02T13:22:17;0.20;;;0.20;;
22017;SDS011;11173;51.050;7.108;2024-03-02T13:32:17;0.22;;;0.17;;
22017;SDS011;11173;51.050;7.108;2024-03-02T13:42:23;0.30;;;0.10;;
22017;SDS011;11173;51.050;7.108;2024-03-02T13:52:23;0.20;;;0.20;;
22017;SDS011;11173;51.050;7.108;2024-03-02T14:02:25;0.20;;;0.20;;
22017;SDS011;11173;51.050;7.108;2024-03-02T14:12:26;0.10;;;0.10;;
22017;SDS011;11173;51.050;7.108;2024-03-02T14:22:26;0.25;;;0.25;;
22017;SDS011;11173;51.050;7.108;2024-03-02T14:32:26;0.20;;;0.20;;
22017;SDS011;11173;51.050;7.108;2024-03-02T14:42:27;0.40;;;0.30;;
22017;SDS011;11173;51.050;7.108;2024-03-02T14:52:32;0.17;;;0.17;;
22017;SDS011;11173;51.050;7.108;2024-03-02T15:02:32;0.20;;;0.20;;
22017;SDS011;11173;51.050;7.108;2024-03-02T15:12:33;0.20;;;0.20;;
22017;SDS011;11173;51.050;7.108;2024-03-02T15:22:33;0.20;;;0.20;;
22017;SDS011;11173;51.050;7.108;2024-03-02T15:32:33;0.35;;;0.20;;
22017;SDS011;11173;51.050;7.108;2024-03-02T15:42:34;0.20;;;0.20;;
22017;SDS011;11173;51.050;7.108;2024-03-02T15:52:34;0.20;;;0.20;;
22017;SDS011;11173;51.050;7.108;2024-03-02T16:02:35;0.10;;;0.10;;
22017;SDS011;11173;51.050;7.108;2024-03-02T16:12:35;0.20;;;0.20;;
22017;SDS011;11173;51.050;7.108;2024-03-02T16:22:35;0.30;;;0.30;;
22017;SDS011;11173;51.050;7.108;2024-03-02T16:32:36;0.20;;;0.20;;
22017;SDS011;11173;51.050;7.108;2024-03-02T16:42:36;0.40;;;0.40;;
22017;SDS011;11173;51.050;7.108;2024-03-02T16:52:36;0.40;;;0.40;;
22017;SDS011;11173;51.050;7.108;2024-03-02T17:02:36;0.30;;;0.30;;
22017;SDS011;11173;51.050;7.108;2024-03-02T17:12:37;0.40;;;0.32;;
22017;SDS011;11173;51.050;7.108;2024-03-02T17:22:37;0.40;;;0.40;;
22017;SDS011;11173;51.050;7.108;2024-03-02T17:32:37;0.50;;;0.50;;
22017;SDS011;11173;51.050;7.108;2024-03-02T17:42:38;1.48;;;0.57;;
22017;SDS011;11173;51.050;7.108;2024-03-02T17:52:38;0.50;;;0.50;;
22017;SDS011;11173;51.050;7.108;2024-03-02T18:02:38;1.45;;;0.55;;
22017;SDS011;11173;51.050;7.108;2024-03-02T18:12:38;0.50;;;0.50;;
22017;SDS011;11173;51.050;7.108;2024-03-02T18:22:39;0.50;;;0.50;;
22017;SDS011;11173;51.050;7.108;2024-03-02T18:32:40;0.63;;;0.63;;
22017;SDS011;11173;51.050;7.108;2024-03-02T18:42:40;0.43;;;0.43;;
22017;SDS011;11173;51.050;7.108;2024-03-02T18:52:41;1.10;;;0.97;;
22017;SDS011;11173;51.050;7.108;2024-03-02T19:02:41;0.65;;;0.65;;
22017;SDS011;11173;51.050;7.108;2024-03-02T19:12:41;1.23;;;0.77;;
22017;SDS011;11173;51.050;7.108;2024-03-02T19:22:42;0.80;;;0.80;;
22017;SDS011;11173;51.050;7.108;2024-03-02T19:32:42;1.00;;;1.00;;
22017;SDS011;11173;51.050;7.108;2024-03-02T19:42:42;5.72;;;1.48;;
22017;SDS011;11173;51.050;7.108;2024-03-02T19:52:44;1.60;;;1.48;;
22017;SDS011;11173;51.050;7.108;2024-03-02T20:02:45;1.88;;;1.67;;
22017;SDS011;11173;51.050;7.108;2024-03-02T20:12:45;3.08;;;1.67;;
22017;SDS011;11173;51.050;7.108;2024-03-02T20:22:45;1.92;;;1.83;;
22017;SDS011;11173;51.050;7.108;2024-03-02T20:32:46;2.55;;;1.92;;
22017;SDS011;11173;51.050;7.108;2024-03-02T20:42:46;2.30;;;2.10;;
22017;SDS011;11173;51.050;7.108;2024-03-02T20:52:46;3.17;;;2.30;;
22017;SDS011;11173;51.050;7.108;2024-03-02T21:02:47;2.45;;;2.25;;
22017;SDS011;11173;51.050;7.108;2024-03-02T21:12:48;2.40;;;2.20;;
22017;SDS011;11173;51.050;7.108;2024-03-02T21:22:48;2.63;;;2.42;;
22017;SDS011;11173;51.050;7.108;2024-03-02T21:32:51;3.60;;;2.50;;
22017;SDS011;11173;51.050;7.108;2024-03-02T21:42:52;4.30;;;3.00;;
22017;SDS011;11173;51.050;7.108;2024-03-02T21:52:52;2.95;;;2.75;;
22017;SDS011;11173;51.050;7.108;2024-03-02T22:02:54;4.22;;;3.20;;
22017;SDS011;11173;51.050;7.108;2024-03-02T22:12:55;3.45;;;3.15;;
22017;SDS011;11173;51.050;7.108;2024-03-02T22:22:55;3.55;;;3.25;;
22017;SDS011;11173;51.050;7.108;2024-03-02T22:32:56;2.42;;;2.22;;
22017;SDS011;11173;51.050;7.108;2024-03-02T22:42:57;2.05;;;1.95;;
22017;SDS011;11173;51.050;7.108;2024-03-02T22:52:58;2.20;;;2.00;;
22017;SDS011;11173;51.050;7.108;2024-03-02T23:02:58;2.10;;;1.95;;
22017;SDS011;11173;51.050;7.108;2024-03-02T23:12:59;2.35;;;2.15;;
22017;SDS011;11173;51.050;7.108;2024-03-02T23:22:59;3.28;;;2.97;;
22017;SDS011;11173;51.050;7.108;2024-03-02T23:33:04;4.18;;;3.78;;
22017;SDS011;11173;51.050;7.108;2024-03-02T23:43:04;4.05;;;3.65;;
22017;SDS011;11173;51.050;7.108;2024-03-02T23:53:05;4.47;;;3.55;;
